Time;durP1;ratioP1;P1;durP2;ratioP2;P2;SDS_P1;SDS_P2;PMS_P1;PMS_P2;Temp;Humidity;BMP_temperature;BMP_pressure;BME280_temperature;BME280_humidity;BME280_pressure;Samples;Min_cycle;Max_cycle;Signal;HPM_P1;HPM_P2
2024/04/24 00:07:42;;;;;;;44.22;40.83;;;;;;;11.48;100.00;99900.69;5376218;26;20019;-90
2024/04/24 00:11:05;;;;;;;48.33;44.72;;;;;;;11.50;100.00;99903.94;5408270;26;20550;-90
2024/04/24 00:14:27;;;;;;;44.85;41.33;;;;;;;11.81;100.00;99915.25;5288197;26;19996;-90
2024/04/24 00:21:04;;;;;;;49.10;45.40;;;;;;;11.68;100.00;99918.97;5139928;27;20465;-91
2024/04/24 00:31:14;;;;;;;41.75;38.55;;;;;;;11.54;100.00;99920.22;5266817;27;20008;-90
2024/04/24 00:53:51;;;;;;;39.20;36.10;;;;;;;11.05;100.00;99932.91;5158712;27;20042;-90
2024/04/24 00:57:04;;;;;;;37.78;34.88;;;;;;;10.90;100.00;99947.41;5266977;27;20013;-91
2024/04/24 01:11:26;;;;;;;37.78;34.90;;;;;;;10.66;100.00;99940.41;5407169;26;20438;-90
2024/04/24 01:14:42;;;;;;;39.17;36.20;;;;;;;10.61;100.00;99934.94;5269094;27;20006;-91
2024/04/24 01:40:25;;;;;;;;;;;;;;;;;;;;;
2024/04/24 02:19:04;;;;;;;;;;;;;;;;;;;;;
2024/04/24 02:28:33;;;;;;;31.90;29.55;;;;;;;10.35;100.00;99853.78;5304140;27;20060;-90
2024/04/24 02:47:48;;;;;;;28.83;26.73;;;;;;;9.94;100.00;99871.22;5208925;27;20066;-91
2024/04/24 02:50:41;;;;;;;27.67;25.67;;;;;;;10.12;100.00;99868.56;5421917;26;19999;-90
2024/04/24 02:54:15;;;;;;;26.48;24.58;;;;;;;10.01;100.00;99869.31;5419400;26;20022;-90
2024/04/24 02:57:20;;;;;;;28.58;25.85;;;;;;;10.23;100.00;99889.03;5302646;26;20012;-91
2024/04/24 03:19:14;;;;;;;30.95;28.85;;;;;;;9.72;100.00;99874.34;5146118;27;20071;-90
2024/04/24 03:22:09;;;;;;;26.67;24.77;;;;;;;9.80;100.00;99875.88;5203676;27;20015;-90
2024/04/24 03:35:23;;;;;;;22.85;21.35;;;;;;;9.86;100.00;99882.94;5192939;26;20010;-90
2024/04/24 03:48:18;;;;;;;27.70;25.90;;;;;;;10.07;100.00;99913.50;5226572;27;20014;-90
2024/04/24 04:00:14;;;;;;;23.17;21.77;;;;;;;10.01;100.00;99952.34;5336081;26;20136;-90
2024/04/24 04:10:17;;;;;;;25.38;23.50;;;;;;;10.11;100.00;99985.53;5278889;26;20015;-90
2024/04/24 04:36:09;;;;;;;28.88;27.08;;;;;;;11.01;100.00;99951.13;5058243;28;20011;-91
2024/04/24 04:45:26;;;;;;;38.80;36.40;;;;;;;11.32;100.00;99963.34;5155364;27;20050;-88
2024/04/24 04:48:32;;;;;;;35.00;32.15;;;;;;;10.89;100.00;99971.53;5102860;28;20022;-88
2024/04/24 04:51:55;;;;;;;34.03;31.83;;;;;;;10.76;100.00;99975.19;5083737;27;20012;-88
2024/04/24 04:59:00;;;;;;;28.42;26.42;;;;;;;10.61;100.00;99996.00;5316890;26;20005;-88
2024/04/24 05:07:40;;;;;;;31.10;29.10;;;;;;;10.88;100.00;99999.13;5399238;26;20014;-89
2024/04/24 05:20:49;;;;;;;29.83;27.93;;;;;;;11.38;100.00;100001.50;5372138;26;20018;-88
2024/04/24 05:23:58;;;;;;;28.98;27.08;;;;;;;11.62;100.00;100003.16;5410311;26;20237;-89
2024/04/24 05:46:30;;;;;;;35.10;32.70;;;;;;;11.76;100.00;100024.19;5225096;27;20044;-89
2024/04/24 05:49:59;;;;;;;35.28;32.85;;;;;;;12.14;100.00;100029.91;5376669;26;20417;-89
2024/04/24 05:53:10;;;;;;;39.40;36.70;;;;;;;11.41;100.00;100025.78;5346956;26;20004;-89
2024/04/24 05:56:36;;;;;;;;;;;;;;;;;;;;;
2024/04/24 05:59:24;;;;;;;36.83;34.33;;;;;;;12.26;100.00;100043.22;5282488;26;20033;-89
2024/04/24 06:02:15;;;;;;;39.47;36.45;;;;;;;12.18;100.00;100050.72;5303541;26;20001;-88
2024/04/24 06:24:32;;;;;;;37.20;34.42;;;;;;;11.19;100.00;100065.34;5405298;26;20233;-89
2024/04/24 06:27:39;;;;;;;36.17;33.40;;;;;;;11.70;100.00;100063.16;5375993;26;20002;-89
2024/04/24 06:30:58;;;;;;;35.20;32.80;;;;;;;11.77;100.00;100068.38;5382645;26;20040;-88
2024/04/24 06:34:17;;;;;;;38.40;35.80;;;;;;;11.73;100.00;100060.03;5273254;26;20076;-89
2024/04/24 06:47:33;;;;;;;39.08;36.28;;;;;;;11.64;100.00;100086.16;5271027;27;20329;-89
2024/04/24 06:53:29;;;;;;;38.05;35.25;;;;;;;11.75;100.00;100089.09;5255330;27;20005;-89
2024/04/24 06:56:30;;;;;;;39.83;37.03;;;;;;;12.22;100.00;100079.31;5292307;27;20116;-89
2024/04/24 07:06:24;;;;;;;;;;;;;;;;;;;;;
2024/04/24 07:22:26;;;;;;;40.63;37.72;;;;;;;12.34;100.00;100114.75;5351998;26;20004;-88
2024/04/24 07:28:34;;;;;;;43.58;40.47;;;;;;;12.17;100.00;100105.84;5373525;26;20347;-89
2024/04/24 07:35:09;;;;;;;38.40;35.40;;;;;;;12.46;100.00;100100.59;5364654;26;20023;-89
2024/04/24 07:38:11;;;;;;;42.20;39.20;;;;;;;12.55;100.00;100104.53;5408276;26;20463;-89
2024/04/24 07:41:52;;;;;;;45.53;42.30;;;;;;;13.09;100.00;100096.31;5329579;26;20008;-88
2024/04/24 07:44:58;;;;;;;;;;;;;;;;;;;;;
2024/04/24 07:57:35;;;;;;;;;;;;;;;;;;;;;
2024/04/24 08:00:57;;;;;;;47.22;43.25;;;;;;;13.58;100.00;100116.16;5397917;26;20035;-89
2024/04/24 08:04:12;;;;;;;46.92;43.42;;;;;;;13.40;100.00;100109.19;5409009;26;20000;-89
2024/04/24 08:11:06;;;;;;;42.80;39.70;;;;;;;14.42;100.00;100104.69;5372885;26;20002;-89
2024/04/24 08:49:55;;;;;;;;;;;;;;;;;;;;;
2024/04/24 09:26:29;;;;;;;48.28;44.67;;;;;;;16.49;100.00;100119.66;5241755;27;20021;-90
2024/04/24 09:39:46;;;;;;;47.72;44.03;;;;;;;15.69;100.00;100120.66;5085386;27;20018;-89
2024/04/24 09:42:35;;;;;;;48.30;44.42;;;;;;;15.47;100.00;100102.75;5143999;27;20060;-89
2024/04/24 09:45:48;;;;;;;44.90;41.38;;;;;;;16.78;100.00;100105.06;5169698;27;20343;-88
2024/04/24 10:04:48;;;;;;;55.67;49.13;;;;;;;17.60;100.00;100081.94;5298526;27;20016;-88
2024/04/24 10:15:19;;;;;;;64.50;58.63;;;;;;;17.46;100.00;100083.50;4960853;28;20016;-89
2024/04/24 10:24:48;;;;;;;61.22;55.53;;;;;;;18.01;100.00;100092.72;5007386;28;20796;-88
2024/04/24 10:27:52;;;;;;;47.85;42.42;;;;;;;17.59;100.00;100091.06;5042845;28;20011;-88
2024/04/24 10:31:21;;;;;;;65.07;59.63;;;;;;;17.46;100.00;100083.50;5127701;27;20018;-88
2024/04/24 10:34:17;;;;;;;52.35;47.00;;;;;;;17.50;100.00;100087.28;5155563;27;20044;-88
2024/04/24 10:43:14;;;;;;;88.50;81.90;;;;;;;18.09;100.00;100076.03;5311346;26;20018;-87
2024/04/24 10:49:04;;;;;;;100.05;93.07;;;;;;;18.77;100.00;100067.53;5343657;26;20001;-88
2024/04/24 10:52:05;;;;;;;48.05;42.97;;;;;;;18.32;100.00;100082.72;5341207;26;20381;-89
2024/04/24 10:54:57;;;;;;;55.65;50.28;;;;;;;17.96;100.00;100084.63;5317195;26;20002;-88
2024/04/24 11:01:21;;;;;;;54.42;49.22;;;;;;;18.29;100.00;100081.38;5408803;26;20511;-88
2024/04/24 11:04:09;;;;;;;84.13;77.57;;;;;;;18.83;100.00;100081.78;5378405;26;20552;-89
2024/04/24 11:07:24;;;;;;;87.22;80.43;;;;;;;19.10;100.00;100079.47;5409718;26;20003;-88
2024/04/24 11:13:56;;;;;;;57.92;52.17;;;;;;;18.13;100.00;100079.78;5236916;27;20014;-89
2024/04/24 11:20:03;;;;;;;46.30;36.10;;;;;;;18.96;100.00;100081.97;5178402;27;20002;-88
2024/04/24 11:32:35;;;;;;;78.20;72.07;;;;;;;18.64;100.00;100076.97;5408417;26;20000;-88
2024/04/24 11:35:29;;;;;;;122.72;115.20;;;;;;;18.81;100.00;100082.03;5409201;26;20014;-89
2024/04/24 11:41:29;;;;;;;46.03;36.20;;;;;;;18.99;100.00;100065.25;5438279;26;20347;-88
2024/04/24 11:44:28;;;;;;;58.20;52.10;;;;;;;19.12;100.00;100071.09;5388693;26;20007;-88
2024/04/24 11:47:40;;;;;;;76.85;70.10;;;;;;;20.66;100.00;100068.72;5427297;26;20100;-88
2024/04/24 11:50:46;;;;;;;86.93;79.53;;;;;;;20.01;100.00;100071.81;5349776;26;20021;-89
2024/04/24 11:53:51;;;;;;;87.88;80.68;;;;;;;19.36;100.00;100055.06;5387071;26;19999;-89
2024/04/24 12:00:26;;;;;;;79.03;71.35;;;;;;;20.32;100.00;100058.81;5414607;26;20462;-89
2024/04/24 12:09:32;;;;;;;86.07;79.00;;;;;;;19.14;100.00;100058.19;5409886;26;20612;-89
2024/04/24 12:16:16;;;;;;;80.22;73.20;;;;;;;21.18;100.00;100053.47;5392484;26;20390;-89
2024/04/24 12:19:30;;;;;;;88.32;81.10;;;;;;;20.24;100.00;100055.94;5333569;26;20010;-88
2024/04/24 12:22:40;;;;;;;61.17;54.97;;;;;;;20.70;100.00;100060.88;5365753;26;20004;-89
2024/04/24 12:25:40;;;;;;;57.95;52.05;;;;;;;19.82;100.00;100041.28;5389973;26;19995;-88
2024/04/24 12:39:08;;;;;;;44.45;39.97;;;;;;;19.96;100.00;100041.41;5152037;27;20057;-89
2024/04/24 12:45:23;;;;;;;59.35;53.15;;;;;;;21.58;100.00;100018.03;5202297;27;20107;-88
2024/04/24 12:48:37;;;;;;;58.05;51.80;;;;;;;19.68;100.00;100031.16;5167207;27;20019;-88
2024/04/24 12:51:59;;;;;;;;;;;;;;;;;;;;;
2024/04/24 12:57:50;;;;;;;63.63;57.33;;;;;;;20.03;100.00;100031.09;5503444;25;20401;-76
2024/04/24 13:00:19;;;;;;;80.83;73.90;;;;;;;20.85;100.00;100022.06;5468697;26;20482;-77
2024/04/24 13:02:49;;;;;;;62.78;56.58;;;;;;;20.16;100.00;100030.44;5442438;26;20045;-77
2024/04/24 13:05:17;;;;;;;69.60;63.17;;;;;;;21.36;100.00;100018.63;5448403;26;20244;-80
2024/04/24 13:07:48;;;;;;;44.50;35.65;;;;;;;20.49;100.00;100026.00;5467635;26;20002;-80
2024/04/24 13:10:17;;;;;;;70.55;63.92;;;;;;;20.30;100.00;100019.75;5454091;26;20003;-76
2024/04/24 13:12:46;;;;;;;59.13;53.28;;;;;;;21.76;100.00;100016.38;5430175;26;19995;-77
2024/04/24 13:15:18;;;;;;;48.42;36.42;;;;;;;21.77;100.00;100013.38;5440976;26;20013;-80
2024/04/24 13:17:47;;;;;;;47.67;37.70;;;;;;;20.67;100.00;100021.78;5451264;26;20018;-77
2024/04/24 13:20:16;;;;;;;88.97;81.97;;;;;;;21.74;100.00;100000.44;5432247;26;20018;-77
2024/04/24 13:22:44;;;;;;;47.83;42.10;;;;;;;20.45;100.00;100018.75;5424152;26;19999;-77
2024/04/24 13:25:13;;;;;;;77.25;70.57;;;;;;;20.56;100.00;100006.81;5431649;26;20003;-80
2024/04/24 13:27:42;;;;;;;86.65;79.85;;;;;;;21.31;100.00;100003.31;5439188;26;20038;-80
2024/04/24 13:30:12;;;;;;;71.32;65.13;;;;;;;20.71;100.00;100014.69;5467657;26;20003;-80
2024/04/24 13:32:43;;;;;;;74.72;68.45;;;;;;;20.56;100.00;100004.91;5445668;26;20507;-80
2024/04/24 13:35:13;;;;;;;45.67;40.70;;;;;;;20.23;100.00;100006.63;5431725;26;20008;-80
2024/04/24 13:37:42;;;;;;;54.70;49.08;;;;;;;20.15;100.00;100007.25;5431241;26;20241;-82
2024/04/24 13:40:12;;;;;;;74.90;68.78;;;;;;;20.66;100.00;99998.56;5432115;26;20003;-82
2024/04/24 13:42:40;;;;;;;82.55;76.30;;;;;;;20.61;100.00;99993.25;5460829;26;20454;-82
2024/04/24 13:45:09;;;;;;;66.80;60.92;;;;;;;21.59;100.00;99992.59;5432599;26;20858;-82
2024/04/24 13:47:39;;;;;;;80.68;74.13;;;;;;;22.72;100.00;99996.66;5456544;26;20038;-82
2024/04/24 13:50:12;;;;;;;100.85;93.55;;;;;;;21.23;100.00;99990.47;5467038;26;19999;-82
2024/04/24 13:52:40;;;;;;;;;;;;;;;21.18;100.00;99988.66;5468248;26;20003;-82
2024/04/24 13:55:10;;;;;;;91.78;84.80;;;;;;;20.50;100.00;99989.84;5440844;26;19932;-82
2024/04/24 13:57:42;;;;;;;97.03;89.82;;;;;;;20.60;100.00;99980.84;5430982;26;20003;-82
2024/04/24 14:00:17;;;;;;;95.65;88.63;;;;;;;20.23;100.00;99987.75;5429782;26;20042;-82
2024/04/24 14:02:49;;;;;;;95.93;88.82;;;;;;;20.50;100.00;99981.75;5447165;26;20014;-82
2024/04/24 14:05:23;;;;;;;72.03;65.80;;;;;;;20.87;100.00;99974.00;5445676;26;20003;-82
2024/04/24 14:07:52;;;;;;;76.63;70.22;;;;;;;20.76;100.00;99968.75;5437443;26;20003;-82
2024/04/24 14:10:22;;;;;;;100.57;93.40;;;;;;;20.76;100.00;99973.38;5432034;26;20000;-82
2024/04/24 14:12:49;;;;;;;111.13;103.53;;;;;;;20.42;100.00;99981.59;5415906;26;20015;-82
2024/04/24 14:15:18;;;;;;;97.03;90.15;;;;;;;21.10;100.00;99975.03;5433652;26;20003;-81
2024/04/24 14:17:47;;;;;;;116.07;108.40;;;;;;;21.56;100.00;99969.69;5452174;26;20100;-82
2024/04/24 14:20:16;;;;;;;69.22;63.03;;;;;;;20.98;100.00;99978.97;5438903;26;20049;-82
2024/04/24 14:22:47;;;;;;;77.35;71.13;;;;;;;20.73;100.00;99974.75;5434064;26;20328;-81
2024/04/24 14:25:16;;;;;;;81.70;75.18;;;;;;;21.02;100.00;99965.69;5450453;26;20038;-82
2024/04/24 14:27:44;;;;;;;106.53;99.18;;;;;;;21.03;100.00;99968.09;5450491;26;20075;-82
2024/04/24 14:30:13;;;;;;;73.45;67.07;;;;;;;19.88;100.00;99967.41;5417582;26;20035;-82
2024/04/24 14:32:42;;;;;;;68.93;62.85;;;;;;;20.02;100.00;99965.59;5414313;26;20583;-82
2024/04/24 14:35:12;;;;;;;79.20;72.70;;;;;;;20.43;100.00;99959.75;5414527;26;20047;-82
2024/04/24 14:37:42;;;;;;;81.45;74.75;;;;;;;20.46;100.00;99951.06;5414393;26;20019;-82
2024/04/24 14:40:14;;;;;;;104.15;96.78;;;;;;;20.41;100.00;99959.22;5445604;26;19999;-82
2024/04/24 14:42:43;;;;;;;71.15;64.75;;;;;;;20.06;100.00;99957.75;5441660;26;20427;-82
2024/04/24 14:45:13;;;;;;;85.88;78.97;;;;;;;20.62;100.00;99954.38;5423896;26;20015;-82
2024/04/24 14:47:42;;;;;;;43.97;36.25;;;;;;;20.29;100.00;99958.84;5446461;26;20724;-79
2024/04/24 14:50:13;;;;;;;95.72;88.53;;;;;;;21.45;100.00;99947.47;5450234;26;20013;-78
2024/04/24 14:52:42;;;;;;;103.93;95.97;;;;;;;21.26;100.00;99944.75;5450299;26;20003;-79
2024/04/24 14:55:11;;;;;;;73.82;67.15;;;;;;;21.59;100.00;99943.97;5450888;26;20075;-79
2024/04/24 14:57:40;;;;;;;68.40;62.50;;;;;;;21.34;100.00;99947.91;5429330;26;20338;-78
2024/04/24 15:00:12;;;;;;;74.10;67.75;;;;;;;21.20;100.00;99940.53;5415238;26;20003;-78
2024/04/24 15:02:41;;;;;;;87.18;80.38;;;;;;;21.93;100.00;99940.91;5415123;26;20000;-82
2024/04/24 15:05:10;;;;;;;79.10;72.65;;;;;;;21.03;100.00;99940.31;5427417;26;20096;-82
2024/04/24 15:07:37;;;;;;;91.05;84.20;;;;;;;21.18;100.00;99937.34;5433313;26;20014;-82
2024/04/24 15:10:07;;;;;;;64.07;58.35;;;;;;;21.05;100.00;99930.00;5417321;26;20007;-79
2024/04/24 15:12:39;;;;;;;83.32;76.95;;;;;;;20.96;100.00;99929.06;5414378;26;20000;-79
2024/04/24 15:15:08;;;;;;;85.68;78.93;;;;;;;20.86;100.00;99927.31;5414862;26;20000;-79
2024/04/24 15:17:37;;;;;;;130.18;118.70;;;;;;;20.92;100.00;99923.44;5414364;26;20017;-79
2024/04/24 15:20:07;;;;;;;125.10;112.75;;;;;;;20.73;100.00;99911.88;5413592;26;20102;-79
2024/04/24 15:22:36;;;;;;;116.15;103.95;;;;;;;20.94;100.00;99915.88;5414818;26;20238;-79
2024/04/24 15:25:05;;;;;;;119.13;106.53;;;;;;;21.18;100.00;99914.94;5450338;26;19999;-79
2024/04/24 15:27:34;;;;;;;103.97;92.75;;;;;;;21.47;100.00;99902.03;5448289;26;20013;-79
2024/04/24 15:30:06;;;;;;;99.97;88.32;;;;;;;21.31;100.00;99903.38;5414244;26;19999;-79
2024/04/24 15:32:34;;;;;;;113.45;92.03;;;;;;;21.19;100.00;99901.16;5428494;26;20007;-78
2024/04/24 15:35:03;;;;;;;66.82;59.97;;;;;;;20.84;100.00;99905.22;5449884;26;19999;-79
2024/04/24 15:37:32;;;;;;;64.55;58.25;;;;;;;20.93;100.00;99908.84;5418779;26;20075;-79
2024/04/24 15:40:01;;;;;;;58.67;52.58;;;;;;;20.88;100.00;99903.56;5414223;26;20049;-79
2024/04/24 15:42:30;;;;;;;45.83;38.75;;;;;;;20.69;100.00;99902.75;5413567;26;20000;-79
2024/04/24 15:44:59;;;;;;;41.58;37.33;;;;;;;20.63;100.00;99901.22;5414420;26;19999;-82
2024/04/24 15:47:30;;;;;;;40.03;35.83;;;;;;;20.50;100.00;99908.13;5414449;26;20012;-83
2024/04/24 15:49:59;;;;;;;40.95;36.92;;;;;;;20.11;100.00;99903.78;5437003;26;20014;-82
2024/04/24 15:52:28;;;;;;;41.00;36.80;;;;;;;20.01;100.00;99912.81;5449772;26;19998;-79
2024/04/24 15:54:57;;;;;;;41.42;37.33;;;;;;;18.86;100.00;99912.53;5449518;26;20013;-79
2024/04/24 15:57:27;;;;;;;41.85;37.85;;;;;;;19.39;100.00;99909.91;5450290;26;20013;-79
2024/04/24 15:59:57;;;;;;;40.90;36.80;;;;;;;19.50;100.00;99910.63;5450311;26;20002;-82
2024/04/24 16:02:30;;;;;;;43.65;39.35;;;;;;;19.34;100.00;99923.44;5432331;26;20437;-83
2024/04/24 16:04:59;;;;;;;42.15;38.05;;;;;;;19.53;100.00;99922.72;5414697;26;20015;-82
2024/04/24 16:07:28;;;;;;;41.88;37.80;;;;;;;19.41;100.00;99917.72;5413407;26;20003;-83
2024/04/24 16:10:00;;;;;;;46.10;41.85;;;;;;;18.96;100.00;99915.13;5424762;26;19999;-83
2024/04/24 16:12:30;;;;;;;45.58;40.67;;;;;;;18.93;100.00;99917.59;5449939;26;20003;-82
2024/04/24 16:14:59;;;;;;;43.75;39.35;;;;;;;18.82;100.00;99908.81;5442058;26;20000;-82
2024/04/24 16:17:31;;;;;;;42.00;37.50;;;;;;;18.93;100.00;99921.06;5421769;26;20027;-82
2024/04/24 16:20:00;;;;;;;46.10;41.60;;;;;;;18.70;100.00;99908.31;5449591;26;20457;-80
2024/04/24 16:22:32;;;;;;;44.33;40.28;;;;;;;18.77;100.00;99906.94;5446087;26;20021;-79
2024/04/24 16:25:02;;;;;;;41.83;38.03;;;;;;;18.62;100.00;99919.66;5448494;26;19999;-82
2024/04/24 16:27:33;;;;;;;40.33;36.53;;;;;;;18.65;100.00;99921.78;5413770;26;20014;-82
2024/04/24 16:30:02;;;;;;;42.78;38.85;;;;;;;18.65;100.00;99919.91;5413147;26;20435;-83
2024/04/24 16:32:35;;;;;;;44.90;40.50;;;;;;;18.24;100.00;99928.16;5412592;26;20094;-83
2024/04/24 16:35:05;;;;;;;47.72;43.22;;;;;;;18.12;100.00;99927.69;5413274;26;20018;-83
2024/04/24 16:37:34;;;;;;;47.92;43.53;;;;;;;18.01;100.00;99932.31;5412680;26;20071;-82
2024/04/24 16:40:03;;;;;;;45.25;40.97;;;;;;;18.01;100.00;99923.44;5412703;26;19999;-79
2024/04/24 16:42:32;;;;;;;52.60;47.78;;;;;;;18.21;100.00;99931.41;5412957;26;20010;-79
2024/04/24 16:45:01;;;;;;;49.83;45.05;;;;;;;17.94;100.00;99929.09;5413273;26;20342;-79
2024/04/24 16:47:30;;;;;;;51.83;46.72;;;;;;;18.18;100.00;99933.84;5413115;26;20482;-79
2024/04/24 16:50:02;;;;;;;59.03;53.72;;;;;;;18.10;100.00;99940.59;5437424;26;20017;-82
2024/04/24 16:52:30;;;;;;;59.05;53.78;;;;;;;17.99;100.00;99937.13;5448770;26;20013;-83
2024/04/24 16:54:59;;;;;;;66.32;59.78;;;;;;;17.67;100.00;99945.53;5449134;26;20013;-82
2024/04/24 16:57:28;;;;;;;66.80;60.10;;;;;;;17.58;100.00;99944.47;5428290;26;20770;-83
2024/04/24 16:59:57;;;;;;;79.70;72.43;;;;;;;17.79;100.00;99956.00;5412414;26;20004;-83
2024/04/24 17:02:26;;;;;;;73.60;66.57;;;;;;;17.93;100.00;99948.19;5430860;26;20003;-82
2024/04/24 17:04:52;;;;;;;69.63;63.72;;;;;;;17.70;100.00;99939.63;5437283;26;20003;-82
2024/04/24 17:07:25;;;;;;;74.07;68.07;;;;;;;17.78;100.00;99947.13;5415592;26;20443;-82
2024/04/24 17:09:55;;;;;;;74.40;68.40;;;;;;;17.64;100.00;99948.75;5420659;26;20490;-82
2024/04/24 17:12:24;;;;;;;77.32;71.00;;;;;;;17.56;100.00;99951.97;5439408;26;20018;-82
2024/04/24 17:14:53;;;;;;;76.78;70.38;;;;;;;17.66;100.00;99953.84;5417380;26;19999;-82
2024/04/24 17:17:22;;;;;;;71.28;65.28;;;;;;;17.58;100.00;99952.53;5443151;26;20004;-82
2024/04/24 17:19:50;;;;;;;84.35;77.75;;;;;;;17.76;100.00;99956.50;5412648;26;20000;-82
2024/04/24 17:22:16;;;;;;;74.72;68.63;;;;;;;17.38;100.00;99954.13;5412269;26;20000;-79
2024/04/24 17:24:48;;;;;;;70.13;64.07;;;;;;;17.23;100.00;99956.81;5418706;26;20974;-79
2024/04/24 17:27:17;;;;;;;70.45;64.43;;;;;;;17.06;100.00;99965.13;5413891;26;20000;-82
2024/04/24 17:29:46;;;;;;;67.22;61.53;;;;;;;17.25;100.00;99970.00;5412110;26;20014;-82
2024/04/24 17:32:15;;;;;;;71.03;64.93;;;;;;;17.28;100.00;99980.19;5428664;26;20342;-80
2024/04/24 17:34:46;;;;;;;66.50;60.45;;;;;;;17.02;100.00;99966.75;5416901;26;20031;-79
2024/04/24 17:37:15;;;;;;;64.07;58.15;;;;;;;17.04;100.00;99972.66;5411910;26;19999;-82
2024/04/24 17:39:44;;;;;;;64.90;58.30;;;;;;;17.21;100.00;99980.44;5428521;26;19999;-80
2024/04/24 17:42:16;;;;;;;67.18;60.20;;;;;;;16.99;100.00;99985.25;5424226;26;20026;-82
2024/04/24 17:44:42;;;;;;;65.70;58.77;;;;;;;16.73;100.00;99985.16;5439228;26;20042;-80
2024/04/24 17:47:11;;;;;;;64.00;57.90;;;;;;;16.85;100.00;99992.97;5429969;26;20007;-77
2024/04/24 17:49:40;;;;;;;65.63;58.42;;;;;;;16.93;100.00;99990.59;5425817;26;19995;-77
2024/04/24 17:52:09;;;;;;;65.65;58.85;;;;;;;16.65;100.00;99985.69;5443711;26;20090;-76
2024/04/24 17:54:39;;;;;;;60.72;54.20;;;;;;;16.56;100.00;99992.63;5429743;26;20018;-77
2024/04/24 17:57:08;;;;;;;68.22;61.53;;;;;;;16.56;100.00;99996.09;5414472;26;20000;-77
2024/04/24 17:59:41;;;;;;;65.70;59.20;;;;;;;16.40;100.00;99986.38;5428307;26;19995;-77
2024/04/24 18:02:10;;;;;;;65.32;58.42;;;;;;;16.36;100.00;99998.69;5420589;26;20047;-80
2024/04/24 18:04:39;;;;;;;75.13;66.95;;;;;;;16.61;100.00;99993.44;5419206;26;20003;-77
2024/04/24 18:07:08;;;;;;;68.03;60.92;;;;;;;16.66;100.00;99998.00;5442898;26;19999;-77
2024/04/24 18:09:36;;;;;;;69.60;62.50;;;;;;;16.59;100.00;99992.91;5432349;26;20003;-77
2024/04/24 18:12:06;;;;;;;66.55;58.95;;;;;;;16.39;100.00;99995.50;5437636;26;20003;-77
2024/04/24 18:14:35;;;;;;;68.95;61.85;;;;;;;16.24;100.00;99998.91;5433157;26;20371;-80
2024/04/24 18:17:07;;;;;;;64.70;56.10;;;;;;;16.15;100.00;99992.44;5430059;26;20002;-77
2024/04/24 18:19:36;;;;;;;60.95;53.92;;;;;;;16.13;100.00;99987.34;5426387;26;20013;-77
2024/04/24 18:22:05;;;;;;;62.30;53.95;;;;;;;16.02;100.00;99989.16;5425559;26;20003;-77
2024/04/24 18:24:34;;;;;;;59.67;50.30;;;;;;;16.17;100.00;99999.16;5424752;26;20017;-77
2024/04/24 18:27:02;;;;;;;59.05;51.38;;;;;;;15.94;100.00;100002.22;5426679;26;19999;-77
2024/04/24 18:29:34;;;;;;;59.78;49.92;;;;;;;16.06;100.00;100004.69;5426946;26;20017;-77
2024/04/24 18:32:02;;;;;;;63.90;52.72;;;;;;;15.85;100.00;100012.59;5428717;26;20014;-77
2024/04/24 18:34:34;;;;;;;58.55;48.55;;;;;;;15.98;100.00;100008.69;5429762;26;19999;-76
2024/04/24 18:37:03;;;;;;;90.80;50.00;;;;;;;16.00;100.00;100009.22;5426720;26;19998;-76
2024/04/24 18:39:32;;;;;;;60.22;50.92;;;;;;;15.93;100.00;100014.00;5422835;26;20023;-77
2024/04/24 18:42:00;;;;;;;56.20;50.13;;;;;;;16.09;100.00;100007.66;5437112;26;20003;-77
2024/04/24 18:44:29;;;;;;;89.55;54.90;;;;;;;16.01;100.00;100003.63;5414719;26;20339;-77
2024/04/24 18:46:58;;;;;;;58.90;52.85;;;;;;;15.67;100.00;100002.28;5433834;26;20003;-77
2024/04/24 18:49:29;;;;;;;60.35;54.15;;;;;;;15.70;100.00;100012.50;5430936;26;20332;-80
2024/04/24 18:52:00;;;;;;;62.50;55.88;;;;;;;15.71;100.00;100016.81;5438972;26;20544;-80
2024/04/24 18:54:29;;;;;;;58.80;53.20;;;;;;;15.47;100.00;100016.31;5426468;26;20385;-80
2024/04/24 18:56:58;;;;;;;60.55;54.55;;;;;;;15.53;100.00;100021.44;5414077;26;20589;-79
2024/04/24 18:59:27;;;;;;;57.60;52.00;;;;;;;15.36;100.00;100026.13;5427861;26;20447;-80
2024/04/24 19:01:57;;;;;;;58.17;52.22;;;;;;;15.27;100.00;100032.97;5426985;26;20051;-80
2024/04/24 19:04:26;;;;;;;59.03;52.63;;;;;;;15.30;100.00;100043.19;5417958;26;20000;-79
2024/04/24 19:06:54;;;;;;;58.03;50.72;;;;;;;15.28;100.00;100040.78;5417773;26;20499;-80
2024/04/24 19:09:26;;;;;;;59.10;52.80;;;;;;;15.23;100.00;100039.91;5418760;26;20014;-77
2024/04/24 19:11:56;;;;;;;56.50;50.58;;;;;;;15.02;100.00;100033.56;5419729;26;20014;-77
2024/04/24 19:14:24;;;;;;;56.50;51.00;;;;;;;14.83;100.00;100033.09;5417276;26;20018;-80
2024/04/24 19:16:58;;;;;;;59.47;53.78;;;;;;;14.97;100.00;100034.28;5421317;26;20452;-77
2024/04/24 19:19:27;;;;;;;60.08;54.25;;;;;;;15.05;100.00;100033.03;5412694;26;20080;-78
2024/04/24 19:21:56;;;;;;;60.65;54.90;;;;;;;15.13;100.00;100027.25;5412855;26;20003;-77
2024/04/24 19:24:28;;;;;;;60.47;54.67;;;;;;;15.06;100.00;100030.09;5406519;26;20087;-77
2024/04/24 19:26:57;;;;;;;62.00;56.00;;;;;;;14.91;100.00;100034.50;5412499;26;20080;-80
2024/04/24 19:29:25;;;;;;;57.28;51.78;;;;;;;14.85;100.00;100031.75;5414250;26;20000;-77
2024/04/24 19:31:54;;;;;;;59.88;54.10;;;;;;;14.94;100.00;100037.47;5414189;26;20004;-77
2024/04/24 19:34:23;;;;;;;57.60;51.80;;;;;;;14.80;100.00;100025.56;5425358;26;20109;-80
2024/04/24 19:36:52;;;;;;;60.50;54.58;;;;;;;14.52;100.00;100037.25;5435674;26;20015;-76
2024/04/24 19:39:21;;;;;;;55.40;49.88;;;;;;;14.37;100.00;100040.50;5433445;26;20444;-76
2024/04/24 19:41:55;;;;;;;59.13;53.33;;;;;;;14.54;100.00;100045.81;5441991;26;20500;-76
2024/04/24 19:44:26;;;;;;;59.92;54.20;;;;;;;14.37;100.00;100040.50;5418831;26;20014;-77
2024/04/24 19:46:54;;;;;;;55.28;49.30;;;;;;;14.17;100.00;100035.69;5428805;26;20014;-77
2024/04/24 19:49:23;;;;;;;53.83;48.30;;;;;;;14.17;100.00;100041.84;5422549;26;20346;-76
2024/04/24 19:51:57;;;;;;;54.47;48.70;;;;;;;14.11;100.00;100050.84;5414393;26;20011;-76
2024/04/24 19:54:26;;;;;;;54.38;48.38;;;;;;;14.03;100.00;100034.41;5421740;26;19999;-79
2024/04/24 19:56:58;;;;;;;54.78;49.40;;;;;;;14.10;100.00;100045.72;5435306;26;20351;-79
2024/04/24 19:59:27;;;;;;;53.47;48.03;;;;;;;14.03;100.00;100042.44;5417373;26;20088;-77
2024/04/24 20:01:54;;;;;;;56.72;51.53;;;;;;;13.91;100.00;100034.50;5448641;26;20451;-77
2024/04/24 20:04:24;;;;;;;50.20;45.70;;;;;;;13.88;100.00;100025.13;5443290;26;19999;-76
2024/04/24 20:06:55;;;;;;;49.33;45.03;;;;;;;13.48;100.00;100035.97;5415352;26;20014;-77
2024/04/24 20:09:24;;;;;;;46.65;42.55;;;;;;;13.71;100.00;100043.03;5440312;26;20018;-80
2024/04/24 20:11:53;;;;;;;47.83;43.63;;;;;;;13.79;100.00;100039.13;5413187;26;20022;-76
2024/04/24 20:14:25;;;;;;;53.03;48.53;;;;;;;13.90;100.00;100041.72;5417713;26;20742;-77
2024/04/24 20:16:54;;;;;;;59.13;53.73;;;;;;;13.89;100.00;100033.97;5413751;26;20817;-77
2024/04/24 20:19:23;;;;;;;50.75;46.25;;;;;;;13.91;100.00;100032.66;5421947;26;20015;-80
2024/04/24 20:21:52;;;;;;;50.20;45.80;;;;;;;13.94;100.00;100005.47;5440070;26;20461;-77
2024/04/24 20:24:21;;;;;;;50.75;46.25;;;;;;;13.70;100.00;100010.16;5417376;26;19995;-78
2024/04/24 20:26:51;;;;;;;52.60;48.00;;;;;;;13.71;100.00;100003.81;5415222;26;20088;-77
2024/04/24 20:29:20;;;;;;;52.67;47.97;;;;;;;13.86;100.00;100015.78;5413958;26;20053;-77
2024/04/24 20:31:54;;;;;;;53.60;48.30;;;;;;;14.10;100.00;100017.19;5422444;26;20780;-76
2024/04/24 20:34:23;;;;;;;49.60;43.05;;;;;;;13.94;100.00;100013.47;5420829;26;20429;-77
2024/04/24 20:36:54;;;;;;;55.35;49.63;;;;;;;14.02;100.00;100006.13;5412571;26;20000;-77